createdAt,value
2023-03-23T00:01:50.818Z,12.50
2023-03-23T00:03:58.134Z,12.50
2023-03-23T00:06:07.368Z,12.60
2023-03-23T00:08:13.640Z,12.50
2023-03-23T00:10:21.401Z,12.50
2023-03-23T00:12:34.348Z,12.60
2023-03-23T00:14:44.979Z,12.50
2023-03-23T00:16:53.801Z,12.70
2023-03-23T00:18:59.821Z,12.70
2023-03-23T00:21:06.456Z,12.80
2023-03-23T00:23:19.597Z,12.80
2023-03-23T00:25:25.146Z,12.70
2023-03-23T00:27:30.428Z,12.70
2023-03-23T00:29:35.825Z,12.70
2023-03-23T00:31:41.325Z,12.70
2023-03-23T00:33:48.902Z,12.70
2023-03-23T00:35:55.430Z,12.60
2023-03-23T00:38:01.600Z,12.60
2023-03-23T00:40:11.438Z,12.60
2023-03-23T00:42:18.875Z,12.60
2023-03-23T00:44:24.651Z,12.70
2023-03-23T00:46:31.117Z,12.80
2023-03-23T00:48:36.813Z,12.70
2023-03-23T00:50:44.694Z,12.80
2023-03-23T00:52:53.617Z,12.80
2023-03-23T00:54:59.060Z,12.70
2023-03-23T00:57:06.274Z,12.80
2023-03-23T00:59:12.169Z,12.80
2023-03-23T01:01:18.873Z,12.90
2023-03-23T01:03:26.823Z,12.80
2023-03-23T01:05:33.475Z,12.60
2023-03-23T01:07:41.507Z,12.50
2023-03-23T01:09:47.153Z,12.50
2023-03-23T01:11:56.911Z,12.40
2023-03-23T01:14:02.884Z,12.50
2023-03-23T01:16:08.569Z,12.60
2023-03-23T01:18:14.334Z,12.50
2023-03-23T01:20:20.180Z,12.50
2023-03-23T01:22:25.795Z,12.40
2023-03-23T01:24:34.769Z,12.40
2023-03-23T01:26:40.746Z,12.40
2023-03-23T01:28:46.892Z,12.40
2023-03-23T01:30:52.338Z,12.30
2023-03-23T01:32:59.150Z,12.30
2023-03-23T01:35:04.601Z,12.30
2023-03-23T01:37:10.148Z,12.20
2023-03-23T01:39:15.623Z,12.30
2023-03-23T01:41:24.019Z,12.20
2023-03-23T01:43:29.958Z,12.20
2023-03-23T01:45:38.175Z,12.30
2023-03-23T01:47:43.431Z,12.30
2023-03-23T01:49:52.302Z,12.20
2023-03-23T01:52:00.978Z,12.20
2023-03-23T01:54:10.258Z,12.20
2023-03-23T01:56:20.214Z,12.20
2023-03-23T01:58:34.035Z,12.20
2023-03-23T02:00:41.680Z,12.20
2023-03-23T02:02:50.834Z,12.20
2023-03-23T02:05:05.571Z,12.30
2023-03-23T02:07:13.775Z,12.30
2023-03-23T02:09:19.441Z,12.30
2023-03-23T02:11:30.762Z,12.20
2023-03-23T02:13:38.799Z,12.30
2023-03-23T02:16:07.856Z,12.30
2023-03-23T02:18:24.787Z,12.40
2023-03-23T02:20:51.530Z,12.50
2023-03-23T02:23:29.706Z,12.50
2023-03-23T02:26:03.756Z,12.60
2023-03-23T02:28:41.399Z,12.60
2023-03-23T02:31:17.911Z,12.60
2023-03-23T02:33:43.875Z,12.70
2023-03-23T02:35:55.205Z,12.60
2023-03-23T02:38:06.117Z,12.70
2023-03-23T02:40:17.627Z,12.70
2023-03-23T02:42:28.615Z,12.60
2023-03-23T02:44:37.403Z,12.60
2023-03-23T02:46:44.436Z,12.80
2023-03-23T02:48:58.178Z,12.80
2023-03-23T02:51:05.964Z,12.80
2023-03-23T02:53:13.849Z,12.80
2023-03-23T02:55:20.398Z,12.90
2023-03-23T02:57:40.351Z,12.90
2023-03-23T02:59:50.091Z,12.90
2023-03-23T03:02:08.644Z,12.90
2023-03-23T03:04:20.916Z,12.70
2023-03-23T03:06:34.780Z,12.50
2023-03-23T03:08:49.886Z,12.70
2023-03-23T03:11:01.384Z,13.00
2023-03-23T03:13:18.055Z,12.90
2023-03-23T03:15:33.273Z,12.90
2023-03-23T03:17:45.045Z,12.90
2023-03-23T03:19:58.146Z,13.00
2023-03-23T03:22:05.911Z,13.10
2023-03-23T03:24:21.774Z,13.00
2023-03-23T03:26:32.156Z,12.80
2023-03-23T03:28:58.390Z,12.90
2023-03-23T03:31:08.265Z,12.90
2023-03-23T03:33:13.891Z,12.70
2023-03-23T03:35:24.741Z,12.70
2023-03-23T03:37:31.215Z,12.70
2023-03-23T03:39:40.142Z,12.60
2023-03-23T03:41:46.104Z,12.90
2023-03-23T03:43:51.363Z,12.80
2023-03-23T03:45:56.435Z,12.60
2023-03-23T03:48:02.766Z,12.70
2023-03-23T03:50:10.177Z,12.40
2023-03-23T03:52:18.650Z,12.10
2023-03-23T03:54:23.777Z,12.00
2023-03-23T03:56:29.596Z,11.90
2023-03-23T03:58:49.549Z,11.90
2023-03-23T04:01:16.431Z,12.00
2023-03-23T04:03:21.574Z,12.00
2023-03-23T04:05:47.476Z,11.70
2023-03-23T04:08:09.699Z,11.60
2023-03-23T04:10:15.980Z,11.50
2023-03-23T04:12:39.882Z,11.00
2023-03-23T04:14:45.426Z,10.80
2023-03-23T04:16:54.465Z,10.70
2023-03-23T04:19:00.291Z,10.70
2023-03-23T04:21:09.596Z,10.70
2023-03-23T04:23:20.969Z,10.70
2023-03-23T04:25:27.002Z,10.80
2023-03-23T04:27:32.135Z,10.80
2023-03-23T04:29:39.566Z,10.80
2023-03-23T04:32:08.143Z,10.80
2023-03-23T04:34:19.116Z,10.80
2023-03-23T04:36:26.605Z,10.80
2023-03-23T04:38:59.080Z,10.80
2023-03-23T04:41:05.361Z,10.70
2023-03-23T04:43:22.483Z,10.70
2023-03-23T04:45:47.207Z,10.70
2023-03-23T04:47:58.553Z,10.70
2023-03-23T04:50:17.039Z,10.70
2023-03-23T04:52:22.254Z,10.70
2023-03-23T04:54:35.960Z,10.70
2023-03-23T04:56:42.625Z,10.70
2023-03-23T04:58:52.678Z,10.70
2023-03-23T05:01:19.205Z,10.70
2023-03-23T05:03:34.185Z,10.70
2023-03-23T05:05:41.759Z,10.60
2023-03-23T05:07:47.324Z,10.60
2023-03-23T05:09:58.653Z,10.60
2023-03-23T05:12:09.951Z,10.60
2023-03-23T05:14:25.865Z,10.50
2023-03-23T05:16:41.544Z,10.50
2023-03-23T05:18:47.515Z,10.50
2023-03-23T05:20:55.785Z,10.50
2023-03-23T05:23:02.896Z,10.50
2023-03-23T05:25:15.233Z,10.50
2023-03-23T05:27:25.222Z,10.50
2023-03-23T05:29:31.391Z,10.50
2023-03-23T05:31:39.510Z,10.50
2023-03-23T05:33:44.514Z,10.50
2023-03-23T05:36:05.515Z,10.40
2023-03-23T05:38:20.817Z,10.40
2023-03-23T05:40:29.643Z,10.40
2023-03-23T05:42:41.109Z,10.40
2023-03-23T05:44:54.202Z,10.40
2023-03-23T05:46:59.684Z,10.40
2023-03-23T05:49:05.275Z,10.40
2023-03-23T05:51:17.150Z,10.40
2023-03-23T05:53:24.437Z,10.40
2023-03-23T05:55:32.622Z,10.50
2023-03-23T05:57:50.085Z,10.40
2023-03-23T06:00:14.561Z,10.40
2023-03-23T06:02:24.395Z,10.40
2023-03-23T06:04:34.529Z,10.40
2023-03-23T06:06:49.887Z,10.40
2023-03-23T06:08:55.246Z,10.40
2023-03-23T06:11:15.982Z,10.40
2023-03-23T06:13:31.143Z,10.40
2023-03-23T06:15:43.644Z,10.50
2023-03-23T06:17:48.629Z,10.50
2023-03-23T06:19:54.195Z,10.50
2023-03-23T06:22:01.006Z,10.50
2023-03-23T06:24:28.833Z,10.50
2023-03-23T06:26:40.858Z,10.50
2023-03-23T06:28:50.221Z,10.50
2023-03-23T06:30:55.382Z,10.50
2023-03-23T06:33:00.669Z,10.50
2023-03-23T06:35:28.871Z,10.50
2023-03-23T06:37:50.476Z,10.50
2023-03-23T06:40:01.834Z,10.60
2023-03-23T06:42:16.363Z,10.60
2023-03-23T06:44:26.699Z,10.60
2023-03-23T06:46:32.649Z,10.60
2023-03-23T06:48:55.167Z,10.60
2023-03-23T06:51:10.621Z,10.60
2023-03-23T06:53:18.183Z,10.60
2023-03-23T06:55:24.610Z,10.60
2023-03-23T06:57:33.044Z,10.60
2023-03-23T06:59:38.507Z,10.60
2023-03-23T07:01:44.667Z,10.60
2023-03-23T07:03:50.095Z,10.60
2023-03-23T07:06:01.396Z,10.70
2023-03-23T07:08:10.942Z,10.70
2023-03-23T07:10:23.147Z,10.70
2023-03-23T07:12:31.708Z,10.80
2023-03-23T07:14:38.636Z,10.80
2023-03-23T07:16:43.827Z,10.80
2023-03-23T07:18:48.980Z,10.90
2023-03-23T07:20:56.229Z,10.90
2023-03-23T07:23:07.127Z,11.00
2023-03-23T07:25:20.757Z,11.00
2023-03-23T07:27:34.927Z,11.10
2023-03-23T07:29:41.239Z,11.10
2023-03-23T07:31:53.066Z,11.10
2023-03-23T07:33:58.214Z,11.10
2023-03-23T07:36:13.923Z,11.10
2023-03-23T07:38:21.264Z,11.10
2023-03-23T07:40:28.297Z,11.20
2023-03-23T07:42:41.189Z,11.20
2023-03-23T07:44:48.317Z,11.30
2023-03-23T07:46:53.717Z,11.30
2023-03-23T07:49:09.147Z,11.30
2023-03-23T07:51:20.513Z,11.30
2023-03-23T07:53:29.035Z,11.30
2023-03-23T07:55:46.243Z,11.30
2023-03-23T07:58:19.401Z,11.30
2023-03-23T08:00:28.302Z,11.30
2023-03-23T08:02:35.309Z,11.30
2023-03-23T08:05:11.290Z,11.30
2023-03-23T08:07:46.104Z,11.20
2023-03-23T08:10:13.835Z,11.20
2023-03-23T08:12:19.365Z,11.20
2023-03-23T08:14:41.943Z,11.10
2023-03-23T08:17:26.251Z,11.20
2023-03-23T08:19:53.551Z,11.10
2023-03-23T08:22:24.219Z,11.10
2023-03-23T08:24:52.491Z,11.20
2023-03-23T08:27:09.163Z,11.20
2023-03-23T08:29:31.536Z,11.10
2023-03-23T08:31:50.760Z,11.20
2023-03-23T08:34:05.834Z,11.20
2023-03-23T08:36:25.513Z,11.30
2023-03-23T08:38:52.650Z,11.20
2023-03-23T08:41:27.612Z,11.20
2023-03-23T08:43:56.078Z,11.20
2023-03-23T08:46:20.600Z,11.30
2023-03-23T08:48:47.756Z,11.30
2023-03-23T08:51:13.346Z,11.30
2023-03-23T08:53:38.270Z,11.20
2023-03-23T08:56:09.038Z,11.20
2023-03-23T08:58:37.750Z,11.30
2023-03-23T09:01:03.511Z,11.30
2023-03-23T09:03:28.247Z,11.30
2023-03-23T09:05:56.540Z,11.30
2023-03-23T09:08:03.337Z,11.30
2023-03-23T09:10:10.765Z,11.30
2023-03-23T09:12:16.804Z,11.40
2023-03-23T09:14:22.192Z,11.30
2023-03-23T09:16:29.177Z,11.40
2023-03-23T09:18:36.700Z,11.40
2023-03-23T09:20:43.125Z,11.50
2023-03-23T09:22:53.709Z,11.50
2023-03-23T09:24:58.998Z,11.50
2023-03-23T09:27:04.513Z,11.50
2023-03-23T09:29:09.779Z,11.40
2023-03-23T09:31:14.964Z,11.40
2023-03-23T09:33:20.385Z,11.30
2023-03-23T09:35:29.019Z,11.40
2023-03-23T09:37:36.610Z,11.40
2023-03-23T09:39:45.443Z,11.40
2023-03-23T09:42:15.884Z,11.40
2023-03-23T09:44:33.400Z,11.30
2023-03-23T09:46:57.437Z,11.30
2023-03-23T09:49:06.755Z,11.40
2023-03-23T09:51:25.236Z,11.50
2023-03-23T09:53:37.659Z,11.40
2023-03-23T09:55:46.645Z,11.50
2023-03-23T09:58:02.279Z,11.60
2023-03-23T10:00:18.239Z,11.50
2023-03-23T10:02:31.583Z,11.70
2023-03-23T10:04:43.260Z,11.80
2023-03-23T10:06:52.004Z,11.80
2023-03-23T10:09:01.754Z,11.80
2023-03-23T10:11:18.758Z,11.80
2023-03-23T10:13:50.796Z,11.80
2023-03-23T10:15:58.549Z,11.90
2023-03-23T10:18:06.722Z,11.90
2023-03-23T10:20:35.076Z,11.90
2023-03-23T10:22:51.824Z,11.90
2023-03-23T10:25:13.067Z,11.90
2023-03-23T10:27:30.025Z,11.90
2023-03-23T10:29:41.742Z,11.80
2023-03-23T10:31:52.357Z,11.80
2023-03-23T10:34:02.944Z,11.80
2023-03-23T10:36:14.723Z,11.80
2023-03-23T10:38:27.201Z,11.80
2023-03-23T10:40:36.552Z,11.80
2023-03-23T10:42:44.619Z,11.80
2023-03-23T10:44:49.818Z,11.90
2023-03-23T10:47:02.036Z,11.90
2023-03-23T10:49:15.712Z,11.70
2023-03-23T10:51:27.885Z,11.70
2023-03-23T10:53:38.500Z,11.70
2023-03-23T10:55:46.074Z,11.80
2023-03-23T10:58:05.086Z,11.70
2023-03-23T11:00:23.196Z,11.70
2023-03-23T11:02:29.899Z,11.70
2023-03-23T11:04:35.800Z,11.80
2023-03-23T11:06:43.321Z,11.90
2023-03-23T11:08:58.906Z,11.80
2023-03-23T11:11:17.096Z,11.90
2023-03-23T11:13:31.592Z,12.00
2023-03-23T11:15:40.928Z,12.00
2023-03-23T11:17:46.306Z,12.10
2023-03-23T11:19:51.514Z,12.20
2023-03-23T11:22:00.414Z,12.30
2023-03-23T11:24:09.921Z,12.40
2023-03-23T11:26:20.697Z,12.30
2023-03-23T11:28:35.509Z,12.40
2023-03-23T11:30:42.928Z,12.40
2023-03-23T11:32:51.078Z,12.30
2023-03-23T11:35:13.880Z,12.30
2023-03-23T11:37:32.688Z,12.20
2023-03-23T11:39:50.938Z,12.10
2023-03-23T11:42:08.988Z,12.10
2023-03-23T11:44:18.306Z,12.20
2023-03-23T11:46:37.972Z,12.30
2023-03-23T11:48:49.460Z,12.40
2023-03-23T11:50:58.130Z,12.50
2023-03-23T11:53:17.891Z,12.50
2023-03-23T11:55:31.192Z,12.70
2023-03-23T11:57:36.433Z,12.80
2023-03-23T11:59:45.103Z,12.90
2023-03-23T12:01:56.310Z,13.20
2023-03-23T12:04:19.633Z,13.10
2023-03-23T12:06:37.246Z,13.10
2023-03-23T12:09:01.250Z,13.00
2023-03-23T12:11:16.308Z,12.80
2023-03-23T12:13:58.667Z,12.80
2023-03-23T12:16:18.661Z,12.80
2023-03-23T12:18:33.832Z,13.00
2023-03-23T12:20:53.251Z,13.10
2023-03-23T12:23:10.886Z,13.20
2023-03-23T12:25:55.446Z,13.10
2023-03-23T12:28:13.100Z,13.10
2023-03-23T12:30:34.328Z,13.10
2023-03-23T12:33:04.445Z,12.80
2023-03-23T12:35:26.834Z,12.80
2023-03-23T12:37:48.877Z,12.80
2023-03-23T12:40:24.850Z,12.80
2023-03-23T12:42:44.538Z,12.80
2023-03-23T12:44:52.963Z,12.70
2023-03-23T12:47:29.860Z,12.70
2023-03-23T12:49:43.208Z,12.70
2023-03-23T12:51:58.846Z,12.70
2023-03-23T12:54:15.767Z,12.70
2023-03-23T12:56:26.828Z,12.70
2023-03-23T12:58:38.511Z,12.60
2023-03-23T13:00:59.914Z,12.60
2023-03-23T13:03:12.929Z,12.60
2023-03-23T13:05:39.006Z,12.60
2023-03-23T13:07:53.526Z,12.60
2023-03-23T13:10:08.212Z,12.60
2023-03-23T13:12:15.530Z,12.50
2023-03-23T13:14:33.429Z,12.50
2023-03-23T13:16:43.629Z,12.50
2023-03-23T13:18:59.210Z,12.60
2023-03-23T13:21:18.803Z,12.60
2023-03-23T13:23:27.572Z,12.60
2023-03-23T13:25:50.665Z,12.60
2023-03-23T13:28:02.486Z,12.60
2023-03-23T13:30:22.890Z,12.60
2023-03-23T13:32:43.751Z,12.60
2023-03-23T13:34:52.736Z,12.60
2023-03-23T13:37:04.119Z,12.60
2023-03-23T13:39:22.266Z,12.60
2023-03-23T13:41:28.368Z,12.70
2023-03-23T13:43:36.010Z,12.60
2023-03-23T13:45:49.405Z,12.60
2023-03-23T13:48:08.623Z,12.70
2023-03-23T13:50:30.873Z,12.60
2023-03-23T13:52:56.057Z,12.70
2023-03-23T13:55:33.290Z,12.80
2023-03-23T13:57:44.206Z,12.90
2023-03-23T13:59:59.009Z,13.00
2023-03-23T14:02:33.909Z,13.00
2023-03-23T14:04:39.329Z,13.10
2023-03-23T14:06:45.704Z,13.20
2023-03-23T14:09:07.298Z,13.20
2023-03-23T14:11:22.217Z,13.30
2023-03-23T14:13:34.057Z,13.40
2023-03-23T14:15:47.739Z,13.50
2023-03-23T14:17:53.784Z,13.40
2023-03-23T14:20:04.747Z,13.40
2023-03-23T14:22:23.174Z,13.50
2023-03-23T14:24:33.787Z,13.60
2023-03-23T14:26:40.079Z,13.60
2023-03-23T14:28:48.352Z,13.60
2023-03-23T14:30:58.801Z,13.60
2023-03-23T14:33:10.186Z,13.70
2023-03-23T14:35:30.183Z,13.80
2023-03-23T14:37:36.556Z,14.00
2023-03-23T14:39:48.060Z,13.90
2023-03-23T14:41:55.027Z,14.00
2023-03-23T14:44:00.879Z,14.10
2023-03-23T14:46:11.962Z,14.20
2023-03-23T14:48:19.911Z,14.10
2023-03-23T14:50:32.493Z,14.20
2023-03-23T14:52:42.555Z,14.10
2023-03-23T14:54:50.297Z,13.90
2023-03-23T14:56:56.628Z,14.00
2023-03-23T14:59:10.751Z,14.20
2023-03-23T15:01:21.982Z,14.00
2023-03-23T15:03:29.017Z,14.00
2023-03-23T15:05:39.325Z,14.20
2023-03-23T15:07:49.668Z,13.90
2023-03-23T15:09:57.360Z,13.90
2023-03-23T15:12:04.634Z,14.00
2023-03-23T15:14:20.200Z,14.00
2023-03-23T15:16:29.003Z,14.00
2023-03-23T15:18:38.630Z,13.90
2023-03-23T15:20:52.038Z,13.90
2023-03-23T15:22:58.563Z,13.90
2023-03-23T15:25:16.269Z,13.90
2023-03-23T15:27:31.271Z,13.90
2023-03-23T15:29:36.697Z,13.80
2023-03-23T15:31:47.275Z,13.80
2023-03-23T15:33:58.828Z,13.70
2023-03-23T15:36:09.389Z,13.60
2023-03-23T15:38:26.422Z,13.70
2023-03-23T15:40:40.058Z,13.70
2023-03-23T15:42:46.104Z,13.70
2023-03-23T15:45:23.842Z,13.80
2023-03-23T15:47:41.478Z,13.90
2023-03-23T15:49:47.922Z,14.10
2023-03-23T15:51:53.468Z,14.20
2023-03-23T15:54:05.702Z,14.10
2023-03-23T15:56:18.143Z,14.00
2023-03-23T15:58:23.528Z,14.00
2023-03-23T16:00:31.318Z,14.00
2023-03-23T16:02:37.610Z,13.90
2023-03-23T16:04:45.224Z,14.10
2023-03-23T16:06:59.375Z,14.00
2023-03-23T16:09:05.066Z,14.00
2023-03-23T16:11:11.093Z,14.00
2023-03-23T16:13:18.800Z,14.10
2023-03-23T16:15:24.046Z,13.90
2023-03-23T16:17:29.756Z,13.80
2023-03-23T16:19:34.846Z,13.80
2023-03-23T16:21:39.919Z,13.90
2023-03-23T16:23:46.528Z,13.90
2023-03-23T16:25:52.283Z,13.80
2023-03-23T16:27:57.365Z,13.70
2023-03-23T16:30:05.060Z,13.80
2023-03-23T16:32:09.950Z,13.70
2023-03-23T16:34:15.030Z,13.70
2023-03-23T16:36:20.219Z,13.70
2023-03-23T16:38:25.523Z,13.70
2023-03-23T16:40:30.873Z,13.60
2023-03-23T16:42:36.224Z,13.60
2023-03-23T16:44:41.279Z,13.60
2023-03-23T16:46:48.916Z,13.50
2023-03-23T16:48:54.093Z,13.50
2023-03-23T16:50:59.331Z,13.50
2023-03-23T16:53:04.870Z,13.50
2023-03-23T16:55:12.622Z,13.50
2023-03-23T16:57:18.050Z,13.50
2023-03-23T16:59:23.166Z,13.40
2023-03-23T17:01:28.445Z,13.40
2023-03-23T17:03:36.960Z,13.40
2023-03-23T17:05:43.190Z,13.40
2023-03-23T17:07:49.835Z,13.30
2023-03-23T17:09:55.443Z,13.30
2023-03-23T17:12:00.488Z,13.30
2023-03-23T17:14:06.002Z,13.20
2023-03-23T17:16:12.594Z,13.20
2023-03-23T17:18:18.265Z,13.20
2023-03-23T17:20:26.818Z,13.20
2023-03-23T17:22:32.539Z,13.00
2023-03-23T17:24:37.637Z,13.10
2023-03-23T17:26:42.945Z,13.00
2023-03-23T17:28:48.229Z,13.00
2023-03-23T17:30:55.592Z,13.00
2023-03-23T17:33:00.911Z,12.80
2023-03-23T17:35:06.716Z,12.90
2023-03-23T17:37:14.840Z,12.90
2023-03-23T17:39:20.230Z,12.90
2023-03-23T17:41:25.391Z,12.90
2023-03-23T17:43:30.789Z,12.80
2023-03-23T17:45:36.610Z,12.80
2023-03-23T17:47:41.818Z,12.80
2023-03-23T17:49:47.929Z,12.80
2023-03-23T17:51:53.188Z,12.70
2023-03-23T17:54:01.192Z,12.70
2023-03-23T17:56:08.906Z,12.70
2023-03-23T17:58:13.919Z,12.70
2023-03-23T18:00:20.977Z,12.70
2023-03-23T18:02:26.210Z,12.60
2023-03-23T18:04:31.333Z,12.60
2023-03-23T18:06:36.375Z,12.60
2023-03-23T18:08:42.427Z,12.60
2023-03-23T18:10:52.256Z,12.60
2023-03-23T18:12:57.303Z,12.60
2023-03-23T18:15:02.592Z,12.60
2023-03-23T18:17:07.959Z,12.60
2023-03-23T18:19:13.109Z,12.60
2023-03-23T18:21:18.876Z,12.50
2023-03-23T18:23:23.923Z,12.60
2023-03-23T18:25:29.175Z,12.60
2023-03-23T18:27:38.135Z,12.60
2023-03-23T18:29:43.539Z,12.60
2023-03-23T18:31:49.841Z,12.50
2023-03-23T18:33:56.548Z,12.50
2023-03-23T18:36:03.343Z,12.50
2023-03-23T18:38:08.504Z,12.40
2023-03-23T18:40:14.957Z,12.30
2023-03-23T18:42:19.993Z,12.40
2023-03-23T18:44:27.782Z,12.30
2023-03-23T18:46:32.938Z,12.40
2023-03-23T18:48:38.620Z,12.30
2023-03-23T18:50:43.740Z,12.30
2023-03-23T18:52:49.186Z,12.30
2023-03-23T18:54:54.955Z,12.30
2023-03-23T18:57:00.978Z,12.30
2023-03-23T18:59:06.590Z,12.20
2023-03-23T19:01:17.790Z,12.30
2023-03-23T19:03:24.137Z,12.20
2023-03-23T19:05:30.620Z,12.20
2023-03-23T19:07:35.718Z,12.20
2023-03-23T19:09:41.458Z,12.20
2023-03-23T19:11:46.550Z,12.20
2023-03-23T19:14:01.743Z,12.10
2023-03-23T19:16:09.905Z,12.20
2023-03-23T19:18:17.558Z,12.10
2023-03-23T19:20:45.508Z,12.10
2023-03-23T19:22:47.986Z,12.10
2023-03-23T19:24:52.999Z,12.10
2023-03-23T19:26:58.806Z,12.10
2023-03-23T19:29:25.410Z,12.00
2023-03-23T19:31:30.707Z,12.10
2023-03-23T19:33:40.431Z,12.00
2023-03-23T19:35:46.952Z,12.00
2023-03-23T19:37:53.194Z,12.00
2023-03-23T19:40:00.084Z,12.00
2023-03-23T19:42:05.534Z,12.00
2023-03-23T19:44:10.808Z,12.00
2023-03-23T19:46:17.061Z,11.90
2023-03-23T19:48:22.382Z,11.90
2023-03-23T19:50:30.466Z,11.90
2023-03-23T19:52:35.530Z,11.90
2023-03-23T19:54:41.588Z,11.90
2023-03-23T19:56:47.158Z,11.90
2023-03-23T19:58:53.000Z,11.90
2023-03-23T20:00:58.695Z,11.90
2023-03-23T20:03:03.800Z,11.80
2023-03-23T20:05:09.383Z,11.80
2023-03-23T20:07:17.415Z,11.80
2023-03-23T20:09:22.658Z,11.70
2023-03-23T20:11:27.851Z,11.70
2023-03-23T20:13:33.399Z,11.70
2023-03-23T20:15:38.606Z,11.60
2023-03-23T20:17:44.134Z,11.60
2023-03-23T20:19:49.806Z,11.60
2023-03-23T20:21:56.383Z,11.60
2023-03-23T20:24:04.381Z,11.60
2023-03-23T20:26:13.619Z,11.50
2023-03-23T20:28:18.751Z,11.50
2023-03-23T20:30:24.192Z,11.60
2023-03-23T20:32:33.359Z,11.50
2023-03-23T20:34:39.252Z,11.50
2023-03-23T20:36:50.006Z,11.50
2023-03-23T20:38:55.115Z,11.50
2023-03-23T20:41:05.007Z,11.50
2023-03-23T20:43:10.789Z,11.60
2023-03-23T20:45:18.651Z,11.60
2023-03-23T20:47:23.544Z,11.60
2023-03-23T20:49:29.134Z,11.60
2023-03-23T20:51:34.653Z,11.60
2023-03-23T20:53:40.985Z,11.60
2023-03-23T20:55:46.835Z,11.60
2023-03-23T20:57:54.664Z,11.60
2023-03-23T20:59:59.758Z,11.60
2023-03-23T21:02:05.592Z,11.60
2023-03-23T21:04:15.277Z,11.60
2023-03-23T21:06:20.674Z,11.60
2023-03-23T21:08:26.151Z,11.60
2023-03-23T21:10:31.222Z,11.60
2023-03-23T21:12:36.558Z,11.60
2023-03-23T21:14:45.370Z,11.60
2023-03-23T21:16:50.535Z,11.50
2023-03-23T21:18:56.269Z,11.50
2023-03-23T21:21:01.504Z,11.50
2023-03-23T21:23:08.591Z,11.50
2023-03-23T21:25:13.831Z,11.50
2023-03-23T21:27:19.474Z,11.50
2023-03-23T21:29:24.865Z,11.50
2023-03-23T21:31:35.290Z,11.50
2023-03-23T21:33:40.830Z,11.50
2023-03-23T21:35:46.061Z,11.50
2023-03-23T21:37:53.675Z,11.50
2023-03-23T21:39:59.440Z,11.40
2023-03-23T21:42:06.994Z,11.40
2023-03-23T21:44:13.039Z,11.40
2023-03-23T21:46:20.917Z,11.40
2023-03-23T21:48:30.423Z,11.40
2023-03-23T21:50:38.129Z,11.40
2023-03-23T21:52:47.245Z,11.40
2023-03-23T21:54:52.825Z,11.40
2023-03-23T21:56:57.892Z,11.30
2023-03-23T21:59:04.923Z,11.30
2023-03-23T22:01:10.691Z,11.30
2023-03-23T22:03:16.247Z,11.30
2023-03-23T22:05:25.092Z,11.30
2023-03-23T22:07:33.293Z,11.30
2023-03-23T22:09:39.076Z,11.30
2023-03-23T22:11:44.727Z,11.30
2023-03-23T22:13:51.489Z,11.30
2023-03-23T22:15:57.186Z,11.30
2023-03-23T22:18:02.519Z,11.30
2023-03-23T22:20:10.981Z,11.30
2023-03-23T22:22:19.522Z,11.30
2023-03-23T22:24:24.829Z,11.40
2023-03-23T22:26:31.632Z,11.40
2023-03-23T22:28:39.304Z,11.40
2023-03-23T22:30:44.574Z,11.50
2023-03-23T22:32:49.793Z,11.50
2023-03-23T22:34:55.327Z,11.50
2023-03-23T22:37:00.422Z,11.50
2023-03-23T22:39:09.026Z,11.50
2023-03-23T22:41:25.249Z,11.50
2023-03-23T22:43:30.787Z,11.50
2023-03-23T22:45:36.947Z,11.50
2023-03-23T22:47:42.191Z,11.50
2023-03-23T22:49:47.517Z,11.50
2023-03-23T22:51:52.768Z,11.50
2023-03-23T22:53:57.804Z,11.50
2023-03-23T22:56:05.832Z,11.60
2023-03-23T22:58:10.951Z,11.60
2023-03-23T23:00:18.739Z,11.60
2023-03-23T23:02:23.652Z,11.60
2023-03-23T23:04:28.939Z,11.60
2023-03-23T23:06:34.065Z,11.60
2023-03-23T23:08:41.408Z,11.60
2023-03-23T23:10:50.785Z,11.60
2023-03-23T23:12:58.824Z,11.60
2023-03-23T23:15:06.005Z,11.60
2023-03-23T23:17:11.105Z,11.60
2023-03-23T23:19:16.188Z,11.60
2023-03-23T23:21:23.807Z,11.60
2023-03-23T23:23:30.734Z,11.50
2023-03-23T23:25:36.936Z,11.60
2023-03-23T23:27:42.408Z,11.50
2023-03-23T23:29:50.120Z,11.60
2023-03-23T23:31:55.342Z,11.50
2023-03-23T23:34:03.105Z,11.60
2023-03-23T23:36:09.124Z,11.60
2023-03-23T23:38:14.946Z,11.60
2023-03-23T23:40:21.415Z,11.60
2023-03-23T23:42:27.234Z,11.60
2023-03-23T23:44:32.284Z,11.60
2023-03-23T23:46:39.960Z,11.60
2023-03-23T23:48:46.610Z,11.50
2023-03-23T23:50:53.726Z,11.50
2023-03-23T23:52:58.789Z,11.50
2023-03-23T23:55:03.891Z,11.50
2023-03-23T23:57:09.616Z,11.50
2023-03-23T23:59:14.688Z,11.50
